createdAt,value
2022-11-30T00:00:17.233Z,4.38
2022-11-30T00:01:16.706Z,4.36
2022-11-30T00:02:17.044Z,4.37
2022-11-30T00:03:16.765Z,4.37
2022-11-30T00:04:16.415Z,4.34
2022-11-30T00:05:16.901Z,4.33
2022-11-30T00:06:16.380Z,4.31
2022-11-30T00:07:16.928Z,4.33
2022-11-30T00:08:16.480Z,4.30
2022-11-30T00:09:16.951Z,4.33
2022-11-30T00:10:16.436Z,4.31
2022-11-30T00:11:16.911Z,4.27
2022-11-30T00:12:16.510Z,4.27
2022-11-30T00:13:16.971Z,4.26
2022-11-30T00:14:16.445Z,4.27
2022-11-30T00:15:16.928Z,4.28
2022-11-30T00:16:16.565Z,4.27
2022-11-30T00:17:17.288Z,4.26
2022-11-30T00:18:16.765Z,4.24
2022-11-30T00:19:17.260Z,4.26
2022-11-30T00:20:16.725Z,4.23
2022-11-30T00:21:17.221Z,4.21
2022-11-30T00:22:17.282Z,4.21
2022-11-30T00:23:16.767Z,4.24
2022-11-30T00:24:17.254Z,4.23
2022-11-30T00:25:16.779Z,4.23
2022-11-30T00:26:17.285Z,4.20
2022-11-30T00:27:16.868Z,4.23
2022-11-30T00:28:16.358Z,4.23
2022-11-30T00:29:16.832Z,4.19
2022-11-30T00:30:16.314Z,4.20
2022-11-30T00:31:16.891Z,4.21
2022-11-30T00:32:17.246Z,4.21
2022-11-30T00:33:16.715Z,4.21
2022-11-30T00:34:17.179Z,4.20
2022-11-30T00:35:16.680Z,4.20
2022-11-30T00:36:17.181Z,4.21
2022-11-30T00:37:16.665Z,4.20
2022-11-30T00:38:17.173Z,4.20
2022-11-30T00:39:16.636Z,4.20
2022-11-30T00:40:17.147Z,4.17
2022-11-30T00:41:16.657Z,4.20
2022-11-30T00:42:16.473Z,4.20
2022-11-30T00:43:16.949Z,4.16
2022-11-30T00:44:16.491Z,4.17
2022-11-30T00:45:16.969Z,4.17
2022-11-30T00:46:16.517Z,4.20
2022-11-30T00:47:17.109Z,4.17
2022-11-30T00:48:16.605Z,4.17
2022-11-30T00:49:17.104Z,4.20
2022-11-30T00:50:16.593Z,4.17
2022-11-30T00:51:17.077Z,4.16
2022-11-30T00:52:16.574Z,4.16
2022-11-30T00:53:17.063Z,4.16
2022-11-30T00:54:16.577Z,4.17
2022-11-30T00:55:17.058Z,4.17
2022-11-30T00:56:16.525Z,4.16
2022-11-30T00:57:17.020Z,4.17
2022-11-30T00:58:16.499Z,4.17
2022-11-30T00:59:16.958Z,4.19
2022-11-30T01:00:16.443Z,4.17
2022-11-30T01:01:16.984Z,4.17
2022-11-30T01:02:17.331Z,4.14
2022-11-30T01:03:16.888Z,4.16
2022-11-30T01:04:16.412Z,4.19
2022-11-30T01:05:16.892Z,4.17
2022-11-30T01:06:16.368Z,4.16
2022-11-30T01:07:16.883Z,4.16
2022-11-30T01:08:16.499Z,4.16
2022-11-30T01:09:16.964Z,4.19
2022-11-30T01:10:16.443Z,4.23
2022-11-30T01:11:16.897Z,4.21
2022-11-30T01:12:16.982Z,4.21
2022-11-30T01:13:16.457Z,4.20
2022-11-30T01:14:16.935Z,4.20
2022-11-30T01:15:16.477Z,4.19
2022-11-30T01:16:17.042Z,4.23
2022-11-30T01:17:16.758Z,4.23
2022-11-30T01:18:17.232Z,4.19
2022-11-30T01:19:16.724Z,4.19
2022-11-30T01:20:17.204Z,4.17
2022-11-30T01:21:16.686Z,4.13
2022-11-30T01:22:16.371Z,4.16
2022-11-30T01:23:16.840Z,4.17
2022-11-30T01:24:16.364Z,4.24
2022-11-30T01:25:16.833Z,4.19
2022-11-30T01:26:17.285Z,4.17
2022-11-30T01:27:16.746Z,4.12
2022-11-30T01:28:17.261Z,4.10
2022-11-30T01:29:16.712Z,4.13
2022-11-30T01:30:17.346Z,4.13
2022-11-30T01:31:16.922Z,4.19
2022-11-30T01:32:17.333Z,4.16
2022-11-30T01:33:16.800Z,4.13
2022-11-30T01:34:17.301Z,4.14
2022-11-30T01:35:16.826Z,4.13
2022-11-30T01:36:17.288Z,4.13
2022-11-30T01:37:16.760Z,4.17
2022-11-30T01:38:17.241Z,4.13
2022-11-30T01:39:16.753Z,4.09
2022-11-30T01:40:17.259Z,4.12
2022-11-30T01:41:16.732Z,4.09
2022-11-30T01:42:16.433Z,4.13
2022-11-30T01:43:16.921Z,4.06
2022-11-30T01:44:19.714Z,4.08
2022-11-30T01:45:16.890Z,4.12
2022-11-30T01:46:16.452Z,4.12
2022-11-30T01:47:17.058Z,4.08
2022-11-30T01:48:16.545Z,4.08
2022-11-30T01:49:17.017Z,4.05
2022-11-30T01:50:16.513Z,4.06
2022-11-30T01:51:17.004Z,4.06
2022-11-30T01:52:16.945Z,4.09
2022-11-30T01:53:16.420Z,4.05
2022-11-30T01:54:16.870Z,4.03
2022-11-30T01:55:16.320Z,4.00
2022-11-30T01:56:16.801Z,4.05
2022-11-30T01:57:17.287Z,4.03
2022-11-30T01:58:16.774Z,4.05
2022-11-30T01:59:17.264Z,4.00
2022-11-30T02:00:16.763Z,4.00
2022-11-30T02:01:17.350Z,4.02
2022-11-30T02:02:16.830Z,4.03
2022-11-30T02:03:16.403Z,4.02
2022-11-30T02:04:16.953Z,4.02
2022-11-30T02:05:16.557Z,4.03
2022-11-30T02:06:17.030Z,4.00
2022-11-30T02:07:16.750Z,3.99
2022-11-30T02:08:16.670Z,3.99
2022-11-30T02:09:16.323Z,3.98
2022-11-30T02:10:16.788Z,3.98
2022-11-30T02:11:17.256Z,4.02
2022-11-30T02:12:17.246Z,3.98
2022-11-30T02:13:16.723Z,4.02
2022-11-30T02:14:17.252Z,3.99
2022-11-30T02:15:16.724Z,3.98
2022-11-30T02:16:16.728Z,4.00
2022-11-30T02:17:16.335Z,3.99
2022-11-30T02:18:16.936Z,4.00
2022-11-30T02:19:16.395Z,3.98
2022-11-30T02:20:16.896Z,4.00
2022-11-30T02:21:16.390Z,3.99
2022-11-30T02:22:17.133Z,3.96
2022-11-30T02:23:16.612Z,3.96
2022-11-30T02:24:17.299Z,3.96
2022-11-30T02:25:16.760Z,3.95
2022-11-30T02:26:17.242Z,3.96
2022-11-30T02:27:16.781Z,3.95
2022-11-30T02:28:17.258Z,3.96
2022-11-30T02:29:16.991Z,3.90
2022-11-30T02:30:16.508Z,3.93
2022-11-30T02:31:17.030Z,3.95
2022-11-30T02:32:16.372Z,3.95
2022-11-30T02:33:16.847Z,3.93
2022-11-30T02:34:16.338Z,3.96
2022-11-30T02:35:16.855Z,3.95
2022-11-30T02:36:16.394Z,3.88
2022-11-30T02:37:16.890Z,3.88
2022-11-30T02:38:16.368Z,3.88
2022-11-30T02:39:16.882Z,3.90
2022-11-30T02:40:16.395Z,3.89
2022-11-30T02:41:16.871Z,3.88
2022-11-30T02:42:16.397Z,3.90
2022-11-30T02:43:16.909Z,3.89
2022-11-30T02:44:16.375Z,3.90
2022-11-30T02:45:16.873Z,3.90
2022-11-30T02:46:16.409Z,3.89
2022-11-30T02:47:16.997Z,3.90
2022-11-30T02:48:16.461Z,3.89
2022-11-30T02:49:16.926Z,3.93
2022-11-30T02:50:16.409Z,3.92
2022-11-30T02:51:16.871Z,3.90
2022-11-30T02:52:17.225Z,3.88
2022-11-30T02:53:16.691Z,3.85
2022-11-30T02:54:17.180Z,3.88
2022-11-30T02:55:16.675Z,3.88
2022-11-30T02:56:17.165Z,3.90
2022-11-30T02:57:16.639Z,3.89
2022-11-30T02:58:17.153Z,3.89
2022-11-30T02:59:16.651Z,3.85
2022-11-30T03:00:17.176Z,3.83
2022-11-30T03:01:16.668Z,3.88
2022-11-30T03:02:16.933Z,3.86
2022-11-30T03:03:16.465Z,3.85
2022-11-30T03:04:16.976Z,3.86
2022-11-30T03:05:16.478Z,3.90
2022-11-30T03:06:16.973Z,3.92
2022-11-30T03:07:16.491Z,3.89
2022-11-30T03:08:17.167Z,3.86
2022-11-30T03:09:16.689Z,3.85
2022-11-30T03:10:17.155Z,3.88
2022-11-30T03:11:16.680Z,3.88
2022-11-30T03:12:16.417Z,3.86
2022-11-30T03:13:16.937Z,3.85
2022-11-30T03:14:16.398Z,3.83
2022-11-30T03:15:16.896Z,3.85
2022-11-30T03:16:16.427Z,3.85
2022-11-30T03:17:17.028Z,3.86
2022-11-30T03:18:16.509Z,3.85
2022-11-30T03:19:17.006Z,3.81
2022-11-30T03:20:16.476Z,3.82
2022-11-30T03:21:16.936Z,3.82
2022-11-30T03:22:16.368Z,3.83
2022-11-30T03:23:16.870Z,3.81
2022-11-30T03:24:16.367Z,3.82
2022-11-30T03:25:16.869Z,3.85
2022-11-30T03:26:16.373Z,3.88
2022-11-30T03:27:16.855Z,3.85
2022-11-30T03:28:16.771Z,3.81
2022-11-30T03:29:17.259Z,3.82
2022-11-30T03:30:16.750Z,3.78
2022-11-30T03:31:17.269Z,3.78
2022-11-30T03:32:16.471Z,3.79
2022-11-30T03:33:17.091Z,3.78
2022-11-30T03:34:16.556Z,3.78
2022-11-30T03:35:17.046Z,3.81
2022-11-30T03:36:16.521Z,3.81
2022-11-30T03:37:16.989Z,3.79
2022-11-30T03:38:16.478Z,3.79
2022-11-30T03:39:16.950Z,3.79
2022-11-30T03:40:16.430Z,3.79
2022-11-30T03:41:16.979Z,3.79
2022-11-30T03:42:17.135Z,3.79
2022-11-30T03:43:16.889Z,3.81
2022-11-30T03:44:16.391Z,3.79
2022-11-30T03:45:16.893Z,3.77
2022-11-30T03:46:16.439Z,3.77
2022-11-30T03:47:17.114Z,3.78
2022-11-30T03:48:16.643Z,3.79
2022-11-30T03:49:17.141Z,3.77
2022-11-30T03:50:16.638Z,3.78
2022-11-30T03:51:17.140Z,3.78
2022-11-30T03:52:17.162Z,3.77
2022-11-30T03:53:16.629Z,3.78
2022-11-30T03:54:17.194Z,3.75
2022-11-30T03:55:16.672Z,3.77
2022-11-30T03:56:17.157Z,3.75
2022-11-30T03:57:16.613Z,3.79
2022-11-30T03:58:17.082Z,3.78
2022-11-30T03:59:16.554Z,3.77
2022-11-30T04:00:17.026Z,3.74
2022-11-30T04:01:16.491Z,3.75
2022-11-30T04:02:16.703Z,3.77
2022-11-30T04:03:17.217Z,3.75
2022-11-30T04:04:16.795Z,3.74
2022-11-30T04:05:17.277Z,3.77
2022-11-30T04:06:16.769Z,3.81
2022-11-30T04:07:16.338Z,3.79
2022-11-30T04:08:17.033Z,3.74
2022-11-30T04:09:16.514Z,3.74
2022-11-30T04:10:16.992Z,3.74
2022-11-30T04:11:16.498Z,3.75
2022-11-30T04:12:16.973Z,3.72
2022-11-30T04:13:16.438Z,3.74
2022-11-30T04:14:16.927Z,3.72
2022-11-30T04:15:16.426Z,3.72
2022-11-30T04:16:16.957Z,3.75
2022-11-30T04:17:16.463Z,3.72
2022-11-30T04:18:16.922Z,3.71
2022-11-30T04:19:16.433Z,3.72
2022-11-30T04:20:16.905Z,3.74
2022-11-30T04:21:16.396Z,3.71
2022-11-30T04:22:17.281Z,3.67
2022-11-30T04:23:16.809Z,3.68
2022-11-30T04:24:17.310Z,3.69
2022-11-30T04:25:16.794Z,3.67
2022-11-30T04:26:17.288Z,3.72
2022-11-30T04:27:16.778Z,3.71
2022-11-30T04:28:17.260Z,3.68
2022-11-30T04:29:16.757Z,3.67
2022-11-30T04:30:17.248Z,3.71
2022-11-30T04:31:16.786Z,3.71
2022-11-30T04:32:16.524Z,3.67
2022-11-30T04:33:16.987Z,3.69
2022-11-30T04:34:16.473Z,3.68
2022-11-30T04:35:16.947Z,3.68
2022-11-30T04:36:16.452Z,3.71
2022-11-30T04:37:16.953Z,3.69
2022-11-30T04:38:16.446Z,3.69
2022-11-30T04:39:16.921Z,3.68
2022-11-30T04:40:16.402Z,3.67
2022-11-30T04:41:16.871Z,3.68
2022-11-30T04:42:17.112Z,3.69
2022-11-30T04:43:16.747Z,3.72
2022-11-30T04:44:17.237Z,3.72
2022-11-30T04:45:16.705Z,3.69
2022-11-30T04:46:17.210Z,3.68
2022-11-30T04:47:16.835Z,3.71
2022-11-30T04:48:16.311Z,3.69
2022-11-30T04:49:16.795Z,3.71
2022-11-30T04:50:17.279Z,3.74
2022-11-30T04:51:16.775Z,3.69
2022-11-30T04:52:16.793Z,3.67
2022-11-30T04:53:17.285Z,3.65
2022-11-30T04:54:16.787Z,3.68
2022-11-30T04:55:17.270Z,3.71
2022-11-30T04:56:16.761Z,3.71
2022-11-30T04:57:17.245Z,3.71
2022-11-30T04:58:16.720Z,3.67
2022-11-30T04:59:17.193Z,3.68
2022-11-30T05:00:16.667Z,3.64
2022-11-30T05:01:17.213Z,3.65
2022-11-30T05:02:16.713Z,3.65
2022-11-30T05:03:17.198Z,3.65
2022-11-30T05:04:16.700Z,3.67
2022-11-30T05:05:16.348Z,3.65
2022-11-30T05:06:16.855Z,3.64
2022-11-30T05:07:16.361Z,3.61
2022-11-30T05:08:16.843Z,3.55
2022-11-30T05:09:16.331Z,3.61
2022-11-30T05:10:16.799Z,3.57
2022-11-30T05:11:17.285Z,3.54
2022-11-30T05:12:17.199Z,3.55
2022-11-30T05:13:16.672Z,3.54
2022-11-30T05:14:17.182Z,3.55
2022-11-30T05:15:16.645Z,3.49
2022-11-30T05:16:17.194Z,3.50
2022-11-30T05:17:16.740Z,3.49
2022-11-30T05:18:16.330Z,3.47
2022-11-30T05:19:16.805Z,3.49
2022-11-30T05:20:17.285Z,3.49
2022-11-30T05:21:16.821Z,3.47
2022-11-30T05:22:17.030Z,3.49
2022-11-30T05:23:16.558Z,3.47
2022-11-30T05:24:17.074Z,3.47
2022-11-30T05:25:16.563Z,3.46
2022-11-30T05:26:17.026Z,3.46
2022-11-30T05:27:21.059Z,3.47
2022-11-30T05:28:17.309Z,3.49
2022-11-30T05:29:16.824Z,3.47
2022-11-30T05:30:16.303Z,3.46
2022-11-30T05:31:16.872Z,3.46
2022-11-30T05:32:17.093Z,3.41
2022-11-30T05:33:16.692Z,3.41
2022-11-30T05:34:17.203Z,3.43
2022-11-30T05:35:16.719Z,3.43
2022-11-30T05:36:17.196Z,3.37
2022-11-30T05:37:16.756Z,3.39
2022-11-30T05:38:17.234Z,3.36
2022-11-30T05:39:16.707Z,3.33
2022-11-30T05:40:17.183Z,3.34
2022-11-30T05:41:16.664Z,3.30
2022-11-30T05:42:17.038Z,3.30
2022-11-30T05:43:16.500Z,3.27
2022-11-30T05:44:17.018Z,3.28
2022-11-30T05:45:16.497Z,3.27
2022-11-30T05:46:16.994Z,3.24
2022-11-30T05:47:16.673Z,3.26
2022-11-30T05:48:16.394Z,3.23
2022-11-30T05:49:16.882Z,3.20
2022-11-30T05:50:16.405Z,3.17
2022-11-30T05:51:16.907Z,3.14
2022-11-30T05:52:16.349Z,3.13
2022-11-30T05:53:16.824Z,3.13
2022-11-30T05:54:16.299Z,3.09
2022-11-30T05:55:16.760Z,3.10
2022-11-30T05:56:17.216Z,3.09
2022-11-30T05:57:16.702Z,3.07
2022-11-30T05:58:17.182Z,3.12
2022-11-30T05:59:16.639Z,3.07
2022-11-30T06:00:17.124Z,3.07
2022-11-30T06:01:16.601Z,3.07
2022-11-30T06:02:16.332Z,3.03
2022-11-30T06:03:17.166Z,3.03
2022-11-30T06:04:16.916Z,3.02
2022-11-30T06:05:16.404Z,2.96
2022-11-30T06:06:16.904Z,2.92
2022-11-30T06:07:16.430Z,2.95
2022-11-30T06:08:16.980Z,2.95
2022-11-30T06:09:16.473Z,2.92
2022-11-30T06:10:16.970Z,2.88
2022-11-30T06:11:16.444Z,2.91
2022-11-30T06:12:16.611Z,2.91
2022-11-30T06:13:17.076Z,2.91
2022-11-30T06:14:16.595Z,2.89
2022-11-30T06:15:17.113Z,2.86
2022-11-30T06:16:16.714Z,2.84
2022-11-30T06:17:17.313Z,2.86
2022-11-30T06:18:16.783Z,2.84
2022-11-30T06:19:17.275Z,2.84
2022-11-30T06:20:16.714Z,2.85
2022-11-30T06:21:21.095Z,2.82
2022-11-30T06:22:17.072Z,2.82
2022-11-30T06:23:16.533Z,2.79
2022-11-30T06:24:17.060Z,2.79
2022-11-30T06:25:16.535Z,2.81
2022-11-30T06:26:16.989Z,2.78
2022-11-30T06:27:16.490Z,2.79
2022-11-30T06:28:16.966Z,2.78
2022-11-30T06:29:16.457Z,2.76
2022-11-30T06:30:16.957Z,2.74
2022-11-30T06:31:16.637Z,2.72
2022-11-30T06:32:16.766Z,2.63
2022-11-30T06:33:17.280Z,2.61
2022-11-30T06:34:16.748Z,2.61
2022-11-30T06:35:17.215Z,2.60
2022-11-30T06:36:16.705Z,2.55
2022-11-30T06:37:17.210Z,2.57
2022-11-30T06:38:16.687Z,2.57
2022-11-30T06:39:23.371Z,2.55
2022-11-30T06:40:16.662Z,2.57
2022-11-30T06:41:17.140Z,2.57
2022-11-30T06:42:17.095Z,2.57
2022-11-30T06:43:16.582Z,2.57
2022-11-30T06:44:17.080Z,2.60
2022-11-30T06:45:16.578Z,2.58
2022-11-30T06:46:17.088Z,2.60
2022-11-30T06:47:16.690Z,2.61
2022-11-30T06:48:17.183Z,2.61
2022-11-30T06:49:16.680Z,2.61
2022-11-30T06:50:17.138Z,2.63
2022-11-30T06:51:16.632Z,2.67
2022-11-30T06:52:17.119Z,2.64
2022-11-30T06:53:16.590Z,2.69
2022-11-30T06:54:17.060Z,2.68
2022-11-30T06:55:16.542Z,2.69
2022-11-30T06:56:17.009Z,2.68
2022-11-30T06:57:16.557Z,2.65
2022-11-30T06:58:17.026Z,2.69
2022-11-30T06:59:16.519Z,2.67
2022-11-30T07:00:17.017Z,2.68
2022-11-30T07:01:16.549Z,2.67
2022-11-30T07:02:18.407Z,2.64
2022-11-30T07:03:16.516Z,2.67
2022-11-30T07:04:17.050Z,2.68
2022-11-30T07:05:16.641Z,2.69
2022-11-30T07:06:17.087Z,2.71
2022-11-30T07:07:16.588Z,2.68
2022-11-30T07:08:17.095Z,2.71
2022-11-30T07:09:16.616Z,2.76
2022-11-30T07:10:20.031Z,2.74
2022-11-30T07:11:16.910Z,2.79
2022-11-30T07:12:16.997Z,2.79
2022-11-30T07:13:16.480Z,2.82
2022-11-30T07:14:16.995Z,2.85
2022-11-30T07:15:16.474Z,2.85
2022-11-30T07:16:16.982Z,2.85
2022-11-30T07:17:16.502Z,2.89
2022-11-30T07:18:16.967Z,2.91
2022-11-30T07:19:16.434Z,2.96
2022-11-30T07:20:16.913Z,2.96
2022-11-30T07:21:16.420Z,3.03
2022-11-30T07:22:17.033Z,3.03
2022-11-30T07:23:16.508Z,3.06
2022-11-30T07:24:17.012Z,3.02
2022-11-30T07:25:16.489Z,3.09
2022-11-30T07:26:17.006Z,3.09
2022-11-30T07:27:16.533Z,3.09
2022-11-30T07:28:17.046Z,3.09
2022-11-30T07:29:16.523Z,3.07
2022-11-30T07:30:16.985Z,3.09
2022-11-30T07:31:16.832Z,3.12
2022-11-30T07:32:17.024Z,3.14
2022-11-30T07:33:16.506Z,3.12
2022-11-30T07:34:16.988Z,3.14
2022-11-30T07:35:16.467Z,3.12
2022-11-30T07:36:16.989Z,3.17
2022-11-30T07:37:16.488Z,3.17
2022-11-30T07:38:17.033Z,3.19
2022-11-30T07:39:16.517Z,3.20
2022-11-30T07:40:17.013Z,3.20
2022-11-30T07:41:16.520Z,3.22
2022-11-30T07:42:17.063Z,3.24
2022-11-30T07:43:16.548Z,3.26
2022-11-30T07:44:17.029Z,3.26
2022-11-30T07:45:16.495Z,3.31
2022-11-30T07:46:17.017Z,3.36
2022-11-30T07:47:16.628Z,3.39
2022-11-30T07:48:17.098Z,3.40
2022-11-30T07:49:16.593Z,3.37
2022-11-30T07:50:17.087Z,3.37
2022-11-30T07:51:16.598Z,3.36
2022-11-30T07:52:16.408Z,3.37
2022-11-30T07:53:16.904Z,3.40
2022-11-30T07:54:16.408Z,3.46
2022-11-30T07:55:16.890Z,3.53
2022-11-30T07:56:16.385Z,3.55
2022-11-30T07:57:16.848Z,3.54
2022-11-30T07:58:17.541Z,3.53
2022-11-30T07:59:17.232Z,3.51
2022-11-30T08:00:16.704Z,3.58
2022-11-30T08:01:17.346Z,3.54
2022-11-30T08:02:16.635Z,3.53
2022-11-30T08:03:16.427Z,3.55
2022-11-30T08:04:17.013Z,3.60
2022-11-30T08:05:16.524Z,3.57
2022-11-30T08:06:17.041Z,3.58
2022-11-30T08:07:16.553Z,3.61
2022-11-30T08:08:17.046Z,3.60
2022-11-30T08:09:20.461Z,3.57
2022-11-30T08:10:16.516Z,3.60
2022-11-30T08:11:16.978Z,3.61
2022-11-30T08:12:16.368Z,3.69
2022-11-30T08:13:16.880Z,3.71
2022-11-30T08:14:16.362Z,3.67
2022-11-30T08:15:21.204Z,3.67
2022-11-30T08:16:16.500Z,3.72
2022-11-30T08:17:17.136Z,3.72
2022-11-30T08:18:16.663Z,3.67
2022-11-30T08:19:17.178Z,3.67
2022-11-30T08:20:16.659Z,3.62
2022-11-30T08:21:17.150Z,3.69
2022-11-30T08:22:16.877Z,3.67
2022-11-30T08:23:16.359Z,3.67
2022-11-30T08:24:17.019Z,3.72
2022-11-30T08:25:16.624Z,3.77
2022-11-30T08:26:17.116Z,3.74
2022-11-30T08:27:16.597Z,3.78
2022-11-30T08:28:17.095Z,3.72
2022-11-30T08:29:16.577Z,3.75
2022-11-30T08:30:17.064Z,3.71
2022-11-30T08:31:16.620Z,3.68
2022-11-30T08:32:17.214Z,3.69
2022-11-30T08:33:16.698Z,3.71
2022-11-30T08:34:17.209Z,3.77
2022-11-30T08:35:16.704Z,3.77
2022-11-30T08:36:17.237Z,3.82
2022-11-30T08:37:16.720Z,3.78
2022-11-30T08:38:17.203Z,3.81
2022-11-30T08:39:16.707Z,3.75
2022-11-30T08:40:17.216Z,3.75
2022-11-30T08:41:16.713Z,3.74
2022-11-30T08:42:16.338Z,3.72
2022-11-30T08:43:17.037Z,3.74
2022-11-30T08:44:16.510Z,3.69
2022-11-30T08:45:16.977Z,3.69
2022-11-30T08:46:42.933Z,3.67
2022-11-30T08:47:16.997Z,3.65
2022-11-30T08:48:16.591Z,3.65
2022-11-30T08:49:21.823Z,3.72
2022-11-30T08:50:17.165Z,3.74
2022-11-30T08:51:16.657Z,3.69
2022-11-30T08:53:17.265Z,3.77
2022-11-30T08:54:16.747Z,3.72
2022-11-30T08:55:17.229Z,3.77
2022-11-30T08:56:16.750Z,3.74
2022-11-30T08:57:17.250Z,3.74
2022-11-30T08:58:16.904Z,3.68
2022-11-30T08:59:16.387Z,3.72
2022-11-30T09:00:16.868Z,3.74
2022-11-30T09:01:16.338Z,3.72
2022-11-30T09:02:17.231Z,3.82
2022-11-30T09:03:17.009Z,3.79
2022-11-30T09:04:16.497Z,3.72
2022-11-30T09:05:16.975Z,3.75
2022-11-30T09:06:16.460Z,3.79
2022-11-30T09:07:16.965Z,3.82
2022-11-30T09:08:16.462Z,3.74
2022-11-30T09:09:16.941Z,3.79
2022-11-30T09:10:16.411Z,3.77
2022-11-30T09:11:16.872Z,3.79
2022-11-30T09:12:16.872Z,3.72
2022-11-30T09:13:16.375Z,3.69
2022-11-30T09:14:16.892Z,3.69
2022-11-30T09:15:16.397Z,3.71
2022-11-30T09:16:16.929Z,3.77
2022-11-30T09:17:16.471Z,3.68
2022-11-30T09:18:16.999Z,3.71
2022-11-30T09:19:16.483Z,3.68
2022-11-30T09:20:17.289Z,3.69
2022-11-30T09:21:16.754Z,3.68
2022-11-30T09:22:16.451Z,3.68
2022-11-30T09:23:16.969Z,3.72
2022-11-30T09:24:16.440Z,3.74
2022-11-30T09:25:16.933Z,3.75
2022-11-30T09:26:16.430Z,3.74
2022-11-30T09:27:16.901Z,3.64
2022-11-30T09:28:16.389Z,3.71
2022-11-30T09:29:16.877Z,3.69
2022-11-30T09:30:16.367Z,3.75
2022-11-30T09:31:16.921Z,3.72
2022-11-30T09:32:16.396Z,3.71
2022-11-30T09:33:16.878Z,3.68
2022-11-30T09:34:16.374Z,3.75
2022-11-30T09:35:16.875Z,3.71
2022-11-30T09:36:16.389Z,3.82
2022-11-30T09:37:16.881Z,3.75
2022-11-30T09:38:16.361Z,3.71
2022-11-30T09:39:16.835Z,3.68
2022-11-30T09:40:16.336Z,3.75
2022-11-30T09:41:16.837Z,3.77
2022-11-30T09:42:16.707Z,3.74
2022-11-30T09:43:17.244Z,3.74
2022-11-30T09:44:16.760Z,3.71
2022-11-30T09:45:17.221Z,3.72
2022-11-30T09:46:16.802Z,3.77
2022-11-30T09:47:16.426Z,3.82
2022-11-30T09:48:16.910Z,3.81
2022-11-30T09:49:16.416Z,3.75
2022-11-30T09:50:16.920Z,3.75
2022-11-30T09:51:16.405Z,3.79
2022-11-30T09:52:16.598Z,3.77
2022-11-30T09:53:17.110Z,3.74
2022-11-30T09:54:16.591Z,3.75
2022-11-30T09:55:17.050Z,3.68
2022-11-30T09:56:16.520Z,3.65
2022-11-30T09:57:17.000Z,3.79
2022-11-30T09:58:16.496Z,3.75
2022-11-30T09:59:16.985Z,3.62
2022-11-30T10:00:16.508Z,3.67
2022-11-30T10:01:17.017Z,3.71
2022-11-30T10:02:17.046Z,3.65
2022-11-30T10:03:16.955Z,3.67
2022-11-30T10:04:16.598Z,3.68
2022-11-30T10:05:17.094Z,3.67
2022-11-30T10:06:16.561Z,3.71
2022-11-30T10:07:17.067Z,3.77
2022-11-30T10:08:18.178Z,3.74
2022-11-30T10:09:16.878Z,3.74
2022-11-30T10:10:31.503Z,3.72
2022-11-30T10:11:16.745Z,3.79
2022-11-30T10:12:16.441Z,3.77
2022-11-30T10:13:16.908Z,3.75
2022-11-30T10:14:16.368Z,3.81
2022-11-30T10:15:16.850Z,3.83
2022-11-30T10:16:16.354Z,3.67
2022-11-30T10:17:16.919Z,3.64
2022-11-30T10:18:16.408Z,3.62
2022-11-30T10:19:16.879Z,3.61
2022-11-30T10:20:16.382Z,3.67
2022-11-30T10:21:17.041Z,3.64
2022-11-30T10:22:16.812Z,3.71
2022-11-30T10:23:17.322Z,3.77
2022-11-30T10:24:16.326Z,3.78
2022-11-30T10:25:16.803Z,3.72
2022-11-30T10:26:17.306Z,3.69
2022-11-30T10:27:16.801Z,3.74
2022-11-30T10:28:44.783Z,3.74
2022-11-30T10:29:16.765Z,3.77
2022-11-30T10:30:17.235Z,3.79
2022-11-30T10:31:16.773Z,3.69
2022-11-30T10:32:17.005Z,3.77
2022-11-30T10:33:16.493Z,3.72
2022-11-30T10:34:16.956Z,3.68
2022-11-30T10:35:16.454Z,3.72
2022-11-30T10:36:16.938Z,3.68
2022-11-30T10:37:16.429Z,3.67
2022-11-30T10:38:16.901Z,3.69
2022-11-30T10:39:16.397Z,3.67
2022-11-30T10:40:16.877Z,3.68
2022-11-30T10:41:16.366Z,3.61
2022-11-30T10:42:16.669Z,3.69
2022-11-30T10:43:17.188Z,3.69
2022-11-30T10:44:16.658Z,3.74
2022-11-30T10:45:17.165Z,3.61
2022-11-30T10:46:17.270Z,3.62
2022-11-30T10:47:16.893Z,3.67
2022-11-30T10:48:16.383Z,3.65
2022-11-30T10:49:16.886Z,3.65
2022-11-30T10:50:16.482Z,3.67
2022-11-30T10:51:17.137Z,3.67
2022-11-30T10:52:16.669Z,3.69
2022-11-30T10:53:17.148Z,3.62
2022-11-30T10:54:16.626Z,3.62
2022-11-30T10:55:17.109Z,3.64
2022-11-30T10:56:16.581Z,3.62
2022-11-30T10:57:17.052Z,3.65
2022-11-30T10:58:16.529Z,3.61
2022-11-30T10:59:16.989Z,3.60
2022-11-30T11:00:16.481Z,3.61
2022-11-30T11:01:17.001Z,3.54
2022-11-30T11:02:17.191Z,3.54
2022-11-30T11:03:16.760Z,3.50
2022-11-30T11:04:17.270Z,3.53
2022-11-30T11:05:16.893Z,3.60
2022-11-30T11:06:16.370Z,3.61
2022-11-30T11:07:16.886Z,3.62
2022-11-30T11:08:16.527Z,3.60
2022-11-30T11:09:16.389Z,3.62
2022-11-30T11:10:16.880Z,3.60
2022-11-30T11:11:16.395Z,3.60
2022-11-30T11:12:16.666Z,3.55
2022-11-30T11:13:17.182Z,3.54
2022-11-30T11:14:16.692Z,3.54
2022-11-30T11:15:17.187Z,3.58
2022-11-30T11:16:16.753Z,3.61
2022-11-30T11:17:16.439Z,3.51
2022-11-30T11:18:16.947Z,3.62
2022-11-30T11:19:16.463Z,3.61
2022-11-30T11:20:16.949Z,3.55
2022-11-30T11:21:16.462Z,3.60
2022-11-30T11:22:16.988Z,3.61
2022-11-30T11:23:16.452Z,3.62
2022-11-30T11:24:16.941Z,3.67
2022-11-30T11:25:16.428Z,3.68
2022-11-30T11:26:16.916Z,3.62
2022-11-30T11:27:16.381Z,3.62
2022-11-30T11:28:16.894Z,3.62
2022-11-30T11:29:16.379Z,3.61
2022-11-30T11:30:16.897Z,3.57
2022-11-30T11:31:16.439Z,3.62
2022-11-30T11:32:17.260Z,3.55
2022-11-30T11:33:16.783Z,3.55
2022-11-30T11:34:16.349Z,3.68
2022-11-30T11:35:16.869Z,3.65
2022-11-30T11:36:16.348Z,3.58
2022-11-30T11:37:16.820Z,3.60
2022-11-30T11:38:16.313Z,3.53
2022-11-30T11:39:16.782Z,3.57
2022-11-30T11:40:17.258Z,3.57
2022-11-30T11:41:16.745Z,3.51
2022-11-30T11:42:20.589Z,3.53
2022-11-30T11:43:17.021Z,3.49
2022-11-30T11:44:16.490Z,3.47
2022-11-30T11:45:16.977Z,3.53
2022-11-30T11:46:16.494Z,3.51
2022-11-30T11:47:17.197Z,3.46
2022-11-30T11:48:16.667Z,3.47
2022-11-30T11:49:17.139Z,3.51
2022-11-30T11:50:16.618Z,3.50
2022-11-30T11:51:17.097Z,3.46
2022-11-30T11:52:17.114Z,3.47
2022-11-30T11:53:16.659Z,3.50
2022-11-30T11:54:17.251Z,3.58
2022-11-30T11:55:16.846Z,3.54
2022-11-30T11:56:16.338Z,3.58
2022-11-30T11:57:16.799Z,3.62
2022-11-30T11:58:16.362Z,3.57
2022-11-30T11:59:16.864Z,3.51
2022-11-30T12:00:16.738Z,3.55
2022-11-30T12:01:39.047Z,3.67
2022-11-30T12:02:17.125Z,3.64
2022-11-30T12:03:16.678Z,3.67
2022-11-30T12:04:17.214Z,3.64
2022-11-30T12:05:16.849Z,3.67
2022-11-30T12:06:16.369Z,3.64
2022-11-30T12:07:18.215Z,3.62
2022-11-30T12:08:16.872Z,3.71
2022-11-30T12:09:16.368Z,3.72
2022-11-30T12:10:49.741Z,3.62
2022-11-30T12:11:16.315Z,3.62
2022-11-30T12:12:16.705Z,3.64
2022-11-30T12:13:17.170Z,3.65
2022-11-30T12:14:16.695Z,3.60
2022-11-30T12:15:17.205Z,3.60
2022-11-30T12:16:16.754Z,3.61
2022-11-30T12:17:16.341Z,3.58
2022-11-30T12:18:22.415Z,3.60
2022-11-30T12:19:16.902Z,3.53
2022-11-30T12:20:16.422Z,3.58
2022-11-30T12:21:16.877Z,3.54
2022-11-30T12:22:16.357Z,3.60
2022-11-30T12:23:16.801Z,3.60
2022-11-30T12:24:17.290Z,3.64
2022-11-30T12:25:17.100Z,3.61
2022-11-30T12:26:16.782Z,3.62
2022-11-30T12:27:17.350Z,3.54
2022-11-30T12:28:16.818Z,3.54
2022-11-30T12:29:16.394Z,3.53
2022-11-30T12:30:16.910Z,3.54
2022-11-30T12:31:16.456Z,3.57
2022-11-30T12:32:17.285Z,3.49
2022-11-30T12:33:16.754Z,3.51
2022-11-30T12:34:17.280Z,3.55
2022-11-30T12:35:16.796Z,3.55
2022-11-30T12:36:17.273Z,3.54
2022-11-30T12:37:16.787Z,3.58
2022-11-30T12:38:17.268Z,3.62
2022-11-30T12:39:16.754Z,3.65
2022-11-30T12:40:17.259Z,3.67
2022-11-30T12:41:16.738Z,3.64
2022-11-30T12:42:16.363Z,3.62
2022-11-30T12:43:16.841Z,3.65
2022-11-30T12:44:16.325Z,3.68
2022-11-30T12:45:16.833Z,3.64
2022-11-30T12:46:17.326Z,3.71
2022-11-30T12:47:16.952Z,3.72
2022-11-30T12:48:16.445Z,3.62
2022-11-30T12:49:16.932Z,3.68
2022-11-30T12:50:16.519Z,3.74
2022-11-30T12:51:16.997Z,3.74
2022-11-30T12:52:16.546Z,3.78
2022-11-30T12:53:17.030Z,3.79
2022-11-30T12:54:16.520Z,3.77
2022-11-30T12:55:17.322Z,3.81
2022-11-30T12:56:16.801Z,3.71
2022-11-30T12:57:17.310Z,3.72
2022-11-30T12:58:16.820Z,3.71
2022-11-30T12:59:16.294Z,3.71
2022-11-30T13:00:16.775Z,3.72
2022-11-30T13:01:17.345Z,3.75
2022-11-30T13:02:17.082Z,3.71
2022-11-30T13:03:16.731Z,3.72
2022-11-30T13:04:17.198Z,3.82
2022-11-30T13:05:16.683Z,3.79
2022-11-30T13:06:17.185Z,3.75
2022-11-30T13:07:16.705Z,3.72
2022-11-30T13:08:17.184Z,3.75
2022-11-30T13:09:16.666Z,3.82
2022-11-30T13:10:17.158Z,3.77
2022-11-30T13:11:16.621Z,3.77
2022-11-30T13:12:16.997Z,3.83
2022-11-30T13:13:16.469Z,3.79
2022-11-30T13:14:16.933Z,3.88
2022-11-30T13:15:16.442Z,3.82
2022-11-30T13:16:16.995Z,3.78
2022-11-30T13:17:16.565Z,3.81
2022-11-30T13:18:17.066Z,3.81
2022-11-30T13:19:16.572Z,3.74